Time;durP1;ratioP1;P1;durP2;ratioP2;P2;SDS_P1;SDS_P2;PMS_P1;PMS_P2;Temp;Humidity;BMP_temperature;BMP_pressure;BME280_temperature;BME280_humidity;BME280_pressure;Samples;Min_cycle;Max_cycle;Signal;HPM_P1;HPM_P2
2021/10/07 00:02:02;;;;;;;;;;;;;;;22.26;33.92;98638.81;5033300;28;978;-77
2021/10/07 00:04:28;;;;;;;;;;;;;;;21.93;33.40;98642.66;4993966;28;1914;-77
2021/10/07 00:06:54;;;;;;;;;;;;;;;21.77;33.32;98641.31;4976615;28;1594;-77
2021/10/07 00:09:19;;;;;;;;;;;;;;;21.65;33.00;98636.25;4962556;28;1086;-77
2021/10/07 00:11:45;;;;;;;;;;;;;;;21.79;32.69;98632.38;4978361;28;941;-77
2021/10/07 00:14:10;;;;;;;;;;;;;;;21.84;32.68;98623.38;4978379;28;1004;-77
2021/10/07 00:16:36;;;;;;;;;;;;;;;21.77;32.83;98623.50;4958657;29;1603;-77
2021/10/07 00:19:01;;;;;;;;;;;;;;;21.76;32.88;98624.72;4959083;29;998;-77
2021/10/07 00:21:27;;;;;;;;;;;;;;;21.72;32.68;98610.66;4959180;29;927;-77
2021/10/07 00:24:13;;;;;;;;;;;;;;;21.79;32.83;98610.50;4959019;29;1978;-77
2021/10/07 00:26:42;;;;;;;;;;;;;;;21.74;33.06;98602.50;4931553;29;1576;-77
2021/10/07 00:39:45;;;;;;;;;;;;;;;21.78;32.38;98600.41;4901997;29;1020;-77
2021/10/07 00:42:11;;;;;;;;;;;;;;;21.82;32.30;98598.31;4882356;29;1290;-76
2021/10/07 00:44:39;;;;;;;;;;;;;;;21.83;32.43;98599.13;4883739;29;1895;-77
2021/10/07 00:47:05;;;;;;;;;;;;;;;21.80;32.26;98597.94;4864094;29;948;-77
2021/10/07 00:49:32;;;;;;;;;;;;;;;21.66;32.64;98603.88;4879095;29;1509;-77
2021/10/07 00:51:58;;;;;;;;;;;;;;;21.68;32.48;98595.75;4894380;29;1013;-76
2021/10/07 00:54:25;;;;;;;;;;;;;;;21.78;32.36;98596.78;4897469;29;1698;-77
2021/10/07 00:56:50;;;;;;;;;;;;;;;21.67;32.16;98608.31;4901468;29;963;-77
2021/10/07 00:59:16;;;;;;;;;;;;;;;21.68;32.08;98609.91;4916790;29;924;-76
2021/10/07 01:01:41;;;;;;;;;;;;;;;21.66;32.38;98606.72;4941258;29;983;-77
2021/10/07 01:04:07;;;;;;;;;;;;;;;21.73;32.24;98617.09;4938622;29;1983;-76
2021/10/07 01:06:32;;;;;;;;;;;;;;;21.73;32.28;98617.91;4939131;29;943;-77
2021/10/07 01:09:00;;;;;;;;;;;;;;;21.67;32.30;98625.28;4938540;29;930;-77
2021/10/07 01:11:26;;;;;;;;;;;;;;;21.67;32.36;98613.97;4938893;29;1027;-77
2021/10/07 01:13:51;;;;;;;;;;;;;;;21.59;32.09;98613.28;4928981;29;1580;-77
2021/10/07 01:16:17;;;;;;;;;;;;;;;21.66;32.01;98612.38;4938437;29;988;-77
2021/10/07 01:18:43;;;;;;;;;;;;;;;21.67;32.10;98602.63;4938809;29;1016;-77
2021/10/07 01:21:09;;;;;;;;;;;;;;;21.97;32.41;98606.56;4938760;29;1003;-77
2021/10/07 01:23:35;;;;;;;;;;;;;;;22.20;33.17;98606.53;4938425;29;1980;-77
2021/10/07 01:26:00;;;;;;;;;;;;;;;22.38;33.06;98602.53;4938242;29;1596;-77
2021/10/07 01:28:26;;;;;;;;;;;;;;;22.03;33.50;98597.13;4938328;29;999;-77
2021/10/07 01:30:51;;;;;;;;;;;;;;;21.76;33.41;98602.88;4938195;29;1089;-77
2021/10/07 01:33:17;;;;;;;;;;;;;;;21.84;32.57;98598.69;4952804;29;1051;-77
2021/10/07 01:35:42;;;;;;;;;;;;;;;21.83;32.40;98599.91;4957423;29;1712;-77
2021/10/07 01:38:08;;;;;;;;;;;;;;;21.88;32.26;98606.31;4957853;29;1002;-76
2021/10/07 01:40:33;;;;;;;;;;;;;;;21.76;32.54;98600.06;4971940;28;1177;-77
2021/10/07 01:42:59;;;;;;;;;;;;;;;21.76;32.66;98594.41;4976654;28;1899;-77
2021/10/07 01:45:24;;;;;;;;;;;;;;;21.70;32.50;98607.44;5010325;28;1651;-77
2021/10/07 01:47:50;;;;;;;;;;;;;;;21.70;32.88;98607.44;5030224;28;978;-77
2021/10/07 01:50:15;;;;;;;;;;;;;;;21.64;32.78;98608.34;5035672;28;924;-76
2021/10/07 01:52:40;;;;;;;;;;;;;;;21.68;32.68;98604.22;5064502;28;973;-76
2021/10/07 01:55:09;;;;;;;;;;;;;;;21.71;32.58;98600.56;5075383;28;1423;-77
2021/10/07 01:57:35;;;;;;;;;;;;;;;21.79;32.49;98596.34;5075033;28;1590;-77
2021/10/07 02:00:00;;;;;;;;;;;;;;;21.66;32.68;98606.72;5075390;28;948;-77
2021/10/07 02:02:26;;;;;;;;;;;;;;;21.60;32.83;98608.41;5075113;28;1074;-77
2021/10/07 02:04:51;;;;;;;;;;;;;;;21.64;32.45;98608.34;5074855;28;1909;-77
2021/10/07 02:07:17;;;;;;;;;;;;;;;21.62;32.45;98610.84;5075789;28;960;-77
2021/10/07 02:09:42;;;;;;;;;;;;;;;21.58;32.57;98610.88;5075396;28;974;-77
2021/10/07 02:12:07;;;;;;;;;;;;;;;21.72;32.56;98615.50;5075236;28;958;-77
2021/10/07 02:14:33;;;;;;;;;;;;;;;21.62;32.69;98620.13;5074567;28;1573;-77
2021/10/07 02:16:58;;;;;;;;;;;;;;;21.67;32.56;98608.31;5041316;28;1020;-77
2021/10/07 02:19:24;;;;;;;;;;;;;;;21.59;32.33;98612.47;5075039;28;916;-77
2021/10/07 02:21:49;;;;;;;;;;;;;;;21.65;32.39;98609.94;5075072;28;947;-77
2021/10/07 02:24:15;;;;;;;;;;;;;;;22.14;32.97;98610.31;5074413;28;1913;-77
2021/10/07 02:26:40;;;;;;;;;;;;;;;22.24;33.29;98624.28;5075077;28;879;-77
2021/10/07 02:29:06;;;;;;;;;;;;;;;22.30;33.78;98625.38;5053855;28;947;-77
2021/10/07 02:31:31;;;;;;;;;;;;;;;21.94;33.51;98632.94;5055096;28;963;-77
2021/10/07 02:33:56;;;;;;;;;;;;;;;21.84;33.28;98629.03;5054697;28;1559;-77
2021/10/07 02:36:22;;;;;;;;;;;;;;;21.77;33.04;98627.16;5054865;28;945;-77
2021/10/07 02:38:48;;;;;;;;;;;;;;;21.71;32.95;98626.03;5054737;28;1060;-77
2021/10/07 02:41:13;;;;;;;;;;;;;;;21.64;33.18;98619.69;5054416;28;1675;-77
2021/10/07 02:43:39;;;;;;;;;;;;;;;21.75;33.06;98625.97;5053936;28;1972;-77
2021/10/07 02:46:04;;;;;;;;;;;;;;;21.73;33.04;98629.22;5054679;28;985;-77
2021/10/07 02:48:29;;;;;;;;;;;;;;;21.73;32.79;98629.22;5068761;28;915;-77
2021/10/07 02:50:55;;;;;;;;;;;;;;;21.58;32.89;98622.22;5057985;28;1513;-77
2021/10/07 02:53:22;;;;;;;;;;;;;;;21.59;32.80;98624.59;5074153;28;1586;-74
2021/10/07 02:55:47;;;;;;;;;;;;;;;21.72;32.76;98626.84;5053817;28;1603;-77
2021/10/07 02:58:13;;;;;;;;;;;;;;;21.75;32.39;98625.97;5054235;28;964;-77
2021/10/07 03:00:38;;;;;;;;;;;;;;;21.74;32.60;98622.34;5068855;28;1102;-76
2021/10/07 03:03:03;;;;;;;;;;;;;;;21.71;32.31;98623.22;5074145;28;1915;-77
2021/10/07 03:05:29;;;;;;;;;;;;;;;21.74;32.25;98622.34;5074494;28;980;-76
2021/10/07 03:07:54;;;;;;;;;;;;;;;21.69;32.28;98611.50;5074129;28;1000;-77
2021/10/07 03:10:20;;;;;;;;;;;;;;;21.60;32.60;98619.72;5074764;28;927;-76
2021/10/07 03:12:48;;;;;;;;;;;;;;;21.58;32.34;98622.22;5073807;28;1590;-77
2021/10/07 03:15:14;;;;;;;;;;;;;;;21.83;33.35;98628.25;5074395;28;943;-77
2021/10/07 03:17:40;;;;;;;;;;;;;;;22.05;33.61;98625.03;5074313;28;1031;-77
2021/10/07 03:20:06;;;;;;;;;;;;;;;22.10;33.92;98619.69;5074269;28;938;-76
2021/10/07 03:22:31;;;;;;;;;;;;;;;22.09;34.00;98622.94;5073482;28;1583;-77
2021/10/07 03:24:57;;;;;;;;;;;;;;;21.84;33.73;98624.19;5057141;28;1906;-76
2021/10/07 03:27:23;;;;;;;;;;;;;;;21.66;33.75;98629.38;5073888;28;1763;-77
2021/10/07 03:29:49;;;;;;;;;;;;;;;21.73;33.39;98634.91;5040734;28;992;-76
2021/10/07 03:32:14;;;;;;;;;;;;;;;21.79;33.13;98627.50;5074012;28;1622;-77
2021/10/07 03:34:40;;;;;;;;;;;;;;;21.64;33.55;98623.31;5073989;28;963;-76
2021/10/07 03:37:05;;;;;;;;;;;;;;;21.53;33.70;98625.53;5053587;28;929;-77
2021/10/07 03:39:31;;;;;;;;;;;;;;;21.69;33.17;98627.69;5054934;28;967;-76
2021/10/07 03:41:56;;;;;;;;;;;;;;;21.62;33.03;98630.66;5057580;28;1192;-77
2021/10/07 03:44:22;;;;;;;;;;;;;;;21.68;32.75;98629.72;5057915;28;1993;-77
2021/10/07 03:46:47;;;;;;;;;;;;;;;21.69;32.87;98628.50;5057865;28;1037;-77
2021/10/07 03:49:12;;;;;;;;;;;;;;;21.69;32.98;98628.50;5057993;28;1045;-77
2021/10/07 03:51:38;;;;;;;;;;;;;;;21.63;32.65;98620.91;5057697;28;1070;-77
2021/10/07 03:54:03;;;;;;;;;;;;;;;21.68;32.54;98623.25;5087398;28;1025;-77
2021/10/07 03:56:29;;;;;;;;;;;;;;;21.73;32.39;98625.59;5098277;28;1000;-77
2021/10/07 03:58:54;;;;;;;;;;;;;;;21.72;32.90;98636.13;5097468;28;1946;-76
2021/10/07 04:01:20;;;;;;;;;;;;;;;22.16;33.63;98633.34;5097967;28;955;-77
2021/10/07 04:03:45;;;;;;;;;;;;;;;22.28;33.61;98642.03;5098043;28;1991;-76
2021/10/07 04:06:11;;;;;;;;;;;;;;;22.26;33.39;98647.31;5098137;28;970;-77
2021/10/07 04:08:36;;;;;;;;;;;;;;;21.96;33.54;98642.59;5099493;28;1019;-77
2021/10/07 04:11:02;;;;;;;;;;;;;;;21.68;33.60;98640.25;5099936;28;915;-77
2021/10/07 04:13:27;;;;;;;;;;;;;;;21.89;33.04;98644.75;5097635;28;972;-77
2021/10/07 04:15:53;;;;;;;;;;;;;;;21.83;33.12;98648.06;5063880;28;1006;-77
2021/10/07 04:18:18;;;;;;;;;;;;;;;21.77;33.19;98634.84;5097782;28;975;-77
2021/10/07 04:20:44;;;;;;;;;;;;;;;21.74;33.10;98636.50;5097661;28;1047;-77
2021/10/07 04:23:11;;;;;;;;;;;;;;;21.78;32.91;98630.78;5097671;28;1999;-77
2021/10/07 04:25:36;;;;;;;;;;;;;;;21.79;33.04;98638.84;5097530;28;924;-77
2021/10/07 04:28:04;;;;;;;;;;;;;;;21.79;32.96;98635.19;5097362;28;969;-77
2021/10/07 04:30:30;;;;;;;;;;;;;;;21.73;32.72;98626.41;5097295;28;986;-77
2021/10/07 04:32:55;;;;;;;;;;;;;;;21.88;32.52;98634.66;5097267;28;1026;-76
2021/10/07 04:35:21;;;;;;;;;;;;;;;21.63;32.65;98647.22;5063702;28;1013;-77
2021/10/07 04:37:46;;;;;;;;;;;;;;;21.56;33.15;98641.66;5056781;28;1167;-76
2021/10/07 04:40:12;;;;;;;;;;;;;;;21.71;32.72;98648.69;5056939;28;1414;-77
2021/10/07 04:42:37;;;;;;;;;;;;;;;21.63;32.57;98635.09;5056797;28;984;-77
2021/10/07 04:45:03;;;;;;;;;;;;;;;21.70;32.75;98613.09;5007086;28;1906;-77
2021/10/07 04:47:28;;;;;;;;;;;;;;;21.68;32.23;98604.22;5056953;28;1018;-76
2021/10/07 04:49:55;;;;;;;;;;;;;;;21.67;32.59;98619.63;5006734;28;1001;-76
2021/10/07 04:52:20;;;;;;;;;;;;;;;21.60;32.56;98625.41;5055815;28;943;-76
2021/10/07 04:54:45;;;;;;;;;;;;;;;21.65;32.59;98627.75;5056729;28;1024;-77
2021/10/07 04:57:11;;;;;;;;;;;;;;;21.65;32.51;98627.75;5056905;28;923;-76
2021/10/07 04:59:39;;;;;;;;;;;;;;;21.72;32.21;98610.66;5056623;28;1082;-76
2021/10/07 05:02:05;;;;;;;;;;;;;;;21.78;32.02;98606.06;5056719;28;937;-76
2021/10/07 05:04:33;;;;;;;;;;;;;;;21.65;32.58;98587.28;5056393;28;1963;-77
2021/10/07 05:06:59;;;;;;;;;;;;;;;21.56;32.43;98590.69;5040364;28;779;-77
2021/10/07 05:09:24;;;;;;;;;;;;;;;21.68;33.87;98592.09;5016237;28;1132;-76
2021/10/07 05:11:50;;;;;;;;;;;;;;;22.09;33.42;98603.09;5016512;28;927;-76
2021/10/07 05:14:15;;;;;;;;;;;;;;;22.25;33.88;98606.03;5018630;28;877;-77
2021/10/07 05:16:40;;;;;;;;;;;;;;;22.19;34.17;98618.31;5036206;28;1233;-77
2021/10/07 05:19:06;;;;;;;;;;;;;;;21.88;33.72;98612.00;5036561;28;935;-77
2021/10/07 05:21:31;;;;;;;;;;;;;;;21.83;33.46;98636.75;5036289;28;960;-77
2021/10/07 05:23:57;;;;;;;;;;;;;;;21.82;33.42;98594.69;5020253;28;1911;-76
2021/10/07 05:26:22;;;;;;;;;;;;;;;21.71;33.29;98592.06;5036094;28;951;-76
2021/10/07 05:28:48;;;;;;;;;;;;;;;21.71;33.34;98585.56;5036467;28;968;-76
2021/10/07 05:31:13;;;;;;;;;;;;;;;21.72;33.65;98593.66;5036170;28;987;-76
2021/10/07 05:33:39;;;;;;;;;;;;;;;21.75;33.45;98598.44;5019282;28;1458;-76
2021/10/07 05:36:05;;;;;;;;;;;;;;;21.76;33.11;98605.72;5035813;28;935;-76
2021/10/07 05:38:30;;;;;;;;;;;;;;;21.83;32.98;98599.91;5035866;28;944;-77
2021/10/07 05:40:56;;;;;;;;;;;;;;;21.77;33.25;98601.66;5043212;28;1214;-76
2021/10/07 05:43:21;;;;;;;;;;;;;;;21.79;33.06;98604.03;5015853;28;1915;-76
2021/10/07 05:45:47;;;;;;;;;;;;;;;21.70;33.13;98598.94;5000915;28;978;-77
2021/10/07 05:48:12;;;;;;;;;;;;;;;21.63;32.96;98596.22;5015689;28;950;-76
2021/10/07 05:50:38;;;;;;;;;;;;;;;21.64;32.76;98588.53;5015731;28;936;-77
2021/10/07 05:53:05;;;;;;;;;;;;;;;21.68;33.00;98587.25;4976514;28;934;-77
2021/10/07 05:55:30;;;;;;;;;;;;;;;21.62;33.14;98594.63;4976656;28;972;-77
2021/10/07 05:57:56;;;;;;;;;;;;;;;21.68;32.83;98601.41;4976667;28;943;-76
2021/10/07 06:00:22;;;;;;;;;;;;;;;21.60;33.09;98597.06;4976917;28;917;-76
2021/10/07 06:02:48;;;;;;;;;;;;;;;21.95;33.72;98589.19;4975952;28;965;-77
2021/10/07 06:05:13;;;;;;;;;;;;;;;22.28;34.08;98593.84;4960116;28;1943;-77
2021/10/07 06:07:38;;;;;;;;;;;;;;;22.28;34.56;98590.22;4976338;28;899;-76
2021/10/07 06:10:06;;;;;;;;;;;;;;;22.29;34.80;98598.28;4984774;28;1151;-76
2021/10/07 06:12:31;;;;;;;;;;;;;;;21.90;34.35;98590.47;4987282;28;1230;-76
2021/10/07 06:14:57;;;;;;;;;;;;;;;21.74;34.14;98596.84;5001869;28;1206;-77
2021/10/07 06:17:22;;;;;;;;;;;;;;;21.88;33.76;98606.31;4956696;29;1298;-77
2021/10/07 06:19:53;;;;;;;;;;;;;;;21.73;33.91;98591.63;4947447;28;1315;-76
2021/10/07 06:22:18;;;;;;;;;;;;;;;21.81;33.75;98595.91;4964654;28;1402;-76
2021/10/07 06:24:44;;;;;;;;;;;;;;;21.71;33.96;98597.72;4956841;28;1902;-77
2021/10/07 06:27:09;;;;;;;;;;;;;;;21.62;34.00;98591.81;4956970;28;953;-76
2021/10/07 06:29:34;;;;;;;;;;;;;;;21.69;33.73;98602.19;4961494;28;987;-76
2021/10/07 06:32:00;;;;;;;;;;;;;;;21.66;33.78;98618.03;4995646;28;940;-76
2021/10/07 06:34:25;;;;;;;;;;;;;;;21.66;33.87;98620.88;4995745;28;941;-76
2021/10/07 06:36:51;;;;;;;;;;;;;;;21.75;33.53;98609.75;4975416;28;949;-76
2021/10/07 06:39:16;;;;;;;;;;;;;;;21.74;33.29;98625.16;4975821;28;1083;-76
2021/10/07 06:41:42;;;;;;;;;;;;;;;21.88;33.13;98629.00;4975539;28;1233;-76
2021/10/07 06:44:07;;;;;;;;;;;;;;;21.81;33.19;98627.91;4975923;28;1993;-77
2021/10/07 06:46:33;;;;;;;;;;;;;;;21.71;33.21;98614.72;4975898;28;887;-76
2021/10/07 06:48:58;;;;;;;;;;;;;;;21.78;32.93;98620.25;5019966;28;954;-77
2021/10/07 06:51:24;;;;;;;;;;;;;;;21.77;33.24;98621.47;5064949;28;915;-75
2021/10/07 06:53:53;;;;;;;;;;;;;;;21.78;33.07;98625.91;5054231;28;954;-75
2021/10/07 06:56:20;;;;;;;;;;;;;;;21.74;33.27;98636.50;5054660;28;794;-75
2021/10/07 06:58:46;;;;;;;;;;;;;;;21.73;33.17;98617.09;5054318;28;953;-75
2021/10/07 07:01:12;;;;;;;;;;;;;;;21.81;32.86;98630.72;5054032;28;932;-77
2021/10/07 07:03:37;;;;;;;;;;;;;;;21.62;33.34;98628.63;5054298;28;1965;-76
2021/10/07 07:06:03;;;;;;;;;;;;;;;21.69;33.09;98617.16;5037490;28;979;-77
2021/10/07 07:08:28;;;;;;;;;;;;;;;21.74;32.86;98619.50;5054156;28;894;-76
2021/10/07 07:10:53;;;;;;;;;;;;;;;21.70;33.05;98623.63;5047146;28;1114;-76
2021/10/07 07:13:19;;;;;;;;;;;;;;;21.71;32.88;98628.03;5056580;28;909;-76
2021/10/07 07:15:44;;;;;;;;;;;;;;;21.57;33.10;98623.44;5057191;28;1215;-76
2021/10/07 07:18:10;;;;;;;;;;;;;;;21.67;32.96;98641.50;5074496;28;985;-76
2021/10/07 07:20:35;;;;;;;;;;;;;;;21.67;33.02;98642.28;5074149;28;972;-76
2021/10/07 07:23:01;;;;;;;;;;;;;;;21.78;32.99;98631.56;5014240;28;1983;-76
2021/10/07 07:25:27;;;;;;;;;;;;;;;21.74;33.02;98635.69;5014612;28;1332;-77
2021/10/07 07:27:53;;;;;;;;;;;;;;;21.71;33.20;98643.03;4997558;28;1049;-76
2021/10/07 07:30:18;;;;;;;;;;;;;;;21.64;33.00;98648.00;5016336;28;1077;-76
2021/10/07 07:32:44;;;;;;;;;;;;;;;21.70;32.89;98644.25;5033959;28;1035;-77
2021/10/07 07:35:09;;;;;;;;;;;;;;;21.65;32.77;98638.28;5033839;28;1146;-76
2021/10/07 07:37:35;;;;;;;;;;;;;;;21.68;33.10;98645.91;5001282;28;994;-76
2021/10/07 07:40:00;;;;;;;;;;;;;;;21.71;32.89;98645.88;5034338;28;929;-76
2021/10/07 07:42:26;;;;;;;;;;;;;;;21.58;32.96;98644.88;5001023;28;988;-77
2021/10/07 07:47:44;;;;;;;;;;;;;;;21.63;32.76;98647.22;4890116;26;1746;-79
2021/10/07 07:50:10;;;;;;;;;;;;;;;22.10;33.06;98653.69;5035296;28;970;-79
2021/10/07 07:52:35;;;;;;;;;;;;;;;22.17;33.98;98652.75;5016701;28;1136;-79
2021/10/07 07:55:01;;;;;;;;;;;;;;;22.30;34.55;98653.72;4999497;28;1010;-79
2021/10/07 07:57:26;;;;;;;;;;;;;;;22.23;34.46;98638.91;5017017;28;1342;-79
2021/10/07 07:59:51;;;;;;;;;;;;;;;21.91;34.41;98640.25;5016230;28;969;-79
2021/10/07 08:02:17;;;;;;;;;;;;;;;21.78;34.30;98642.91;4964603;28;976;-80
2021/10/07 08:04:43;;;;;;;;;;;;;;;21.83;33.93;98638.78;4996953;28;1898;-79
2021/10/07 08:07:08;;;;;;;;;;;;;;;21.76;33.86;98645.38;4997427;28;1001;-79
2021/10/07 08:09:38;;;;;;;;;;;;;;;21.91;33.39;98643.06;4996411;28;992;-79
2021/10/07 08:12:04;;;;;;;;;;;;;;;21.80;33.60;98646.09;4997912;28;1060;-79
2021/10/07 08:14:29;;;;;;;;;;;;;;;21.72;33.48;98655.16;4996604;28;899;-79
2021/10/07 08:16:58;;;;;;;;;;;;;;;21.72;33.55;98644.63;4997356;28;1246;-79
2021/10/07 08:19:23;;;;;;;;;;;;;;;21.75;33.23;98634.47;4996064;28;1222;-79
2021/10/07 08:21:49;;;;;;;;;;;;;;;21.65;33.37;98639.06;5012613;28;1230;-80
2021/10/07 08:24:16;;;;;;;;;;;;;;;21.64;33.63;98623.31;5046669;28;1995;-79
2021/10/07 08:26:41;;;;;;;;;;;;;;;21.71;33.28;98631.72;5057249;28;1311;-80
2021/10/07 08:29:07;;;;;;;;;;;;;;;21.83;33.02;98635.94;5058890;28;912;-79
2021/10/07 08:31:32;;;;;;;;;;;;;;;21.84;33.09;98629.03;5060402;28;996;-80
2021/10/07 08:33:58;;;;;;;;;;;;;;;21.79;32.66;98636.00;5059881;28;949;-79
2021/10/07 08:36:23;;;;;;;;;;;;;;;21.74;32.74;98635.69;5059934;28;992;-79
2021/10/07 08:38:49;;;;;;;;;;;;;;;21.83;32.62;98633.91;5059357;28;992;-80
2021/10/07 08:41:14;;;;;;;;;;;;;;;21.68;33.24;98634.59;5062387;28;908;-79
2021/10/07 08:43:40;;;;;;;;;;;;;;;21.74;32.83;98635.69;5060137;28;1980;-79
2021/10/07 08:46:07;;;;;;;;;;;;;;;21.77;32.81;98641.31;5062107;28;1174;-79
2021/10/07 08:48:33;;;;;;;;;;;;;;;21.77;32.87;98629.97;5060632;28;976;-79
2021/10/07 08:50:58;;;;;;;;;;;;;;;21.72;32.67;98621.97;5062022;28;1052;-79
2021/10/07 08:53:24;;;;;;;;;;;;;;;21.77;32.36;98624.31;5060323;28;917;-79
2021/10/07 08:55:49;;;;;;;;;;;;;;;22.12;33.46;98622.06;5062388;28;879;-79
2021/10/07 08:58:15;;;;;;;;;;;;;;;22.27;33.93;98628.28;5060219;28;1033;-79
2021/10/07 09:00:40;;;;;;;;;;;;;;;22.29;34.40;98626.63;5062035;28;895;-79
2021/10/07 09:03:19;;;;;;;;;;;;;;;22.03;34.24;98630.34;5060421;28;1897;-79
2021/10/07 09:05:44;;;;;;;;;;;;;;;21.76;34.57;98631.22;5062482;28;1080;-79
2021/10/07 09:08:12;;;;;;;;;;;;;;;21.70;33.97;98624.41;5058392;28;1042;-79
2021/10/07 09:10:39;;;;;;;;;;;;;;;21.65;33.79;98626.94;5059463;28;1095;-79
2021/10/07 09:13:05;;;;;;;;;;;;;;;21.58;33.74;98627.88;5041815;28;1025;-80
2021/10/07 09:15:31;;;;;;;;;;;;;;;21.65;33.84;98636.25;5059057;28;989;-80
2021/10/07 09:18:01;;;;;;;;;;;;;;;21.65;33.64;98639.06;4998881;28;963;-79
2021/10/07 09:20:31;;;;;;;;;;;;;;;21.79;33.28;98638.84;4999370;28;1056;-78
2021/10/07 09:22:56;;;;;;;;;;;;;;;21.61;33.41;98638.34;4997751;28;1078;-78
2021/10/07 09:25:21;;;;;;;;;;;;;;;21.70;33.03;98635.75;5000043;28;1985;-78
2021/10/07 09:27:47;;;;;;;;;;;;;;;21.77;32.70;98634.84;5013015;28;1037;-78
2021/10/07 09:30:12;;;;;;;;;;;;;;;21.67;32.96;98641.50;4996650;28;997;-77
2021/10/07 09:32:43;;;;;;;;;;;;;;;21.61;32.98;98626.22;4980856;28;937;-77
2021/10/07 09:35:09;;;;;;;;;;;;;;;21.61;32.74;98644.00;5012952;28;1092;-78
2021/10/07 09:37:38;;;;;;;;;;;;;;;21.66;32.47;98643.53;4997860;28;972;-77
2021/10/07 09:40:05;;;;;;;;;;;;;;;21.58;33.49;98633.53;5014332;28;1046;-78
2021/10/07 09:42:41;;;;;;;;;;;;;;;22.08;33.35;98635.50;4978493;28;981;-78
2021/10/07 09:45:11;;;;;;;;;;;;;;;22.10;33.74;98644.38;4977350;28;2001;-79
2021/10/07 09:47:37;;;;;;;;;;;;;;;22.32;33.63;98644.78;4981476;28;1589;-78
2021/10/07 09:50:12;;;;;;;;;;;;;;;22.30;34.27;98641.59;4976759;28;1258;-78
2021/10/07 09:52:37;;;;;;;;;;;;;;;22.11;34.15;98643.16;4974806;28;1314;-79
2021/10/07 09:55:13;;;;;;;;;;;;;;;21.77;34.07;98644.16;4977319;28;1231;-79
2021/10/07 09:57:57;;;;;;;;;;;;;;;21.75;33.64;98643.75;4977405;28;1230;-78
2021/10/07 10:00:23;;;;;;;;;;;;;;;21.71;33.50;98637.38;4975543;28;1265;-79
2021/10/07 10:02:48;;;;;;;;;;;;;;;21.64;32.92;98640.31;4976992;28;1289;-78
2021/10/07 10:05:14;;;;;;;;;;;;;;;21.65;32.97;98644.72;4977316;28;1910;-78
2021/10/07 10:07:41;;;;;;;;;;;;;;;21.78;32.78;98654.22;4977402;28;1281;-78
2021/10/07 10:10:06;;;;;;;;;;;;;;;21.75;32.34;98655.09;4976967;28;1209;-78
2021/10/07 10:12:32;;;;;;;;;;;;;;;21.78;32.64;98659.91;4981143;28;1305;-78
2021/10/07 10:14:57;;;;;;;;;;;;;;;21.73;32.18;98668.88;5016482;28;1245;-78
2021/10/07 10:17:23;;;;;;;;;;;;;;;21.95;33.14;98662.84;5039616;28;1396;-78
2021/10/07 10:19:49;;;;;;;;;;;;;;;22.10;33.11;98661.38;5038851;28;1225;-79
2021/10/07 10:22:15;;;;;;;;;;;;;;;22.22;33.36;98649.41;5078399;28;1193;-78
2021/10/07 10:24:40;;;;;;;;;;;;;;;22.10;32.85;98647.19;5076726;28;1973;-79
2021/10/07 10:27:06;;;;;;;;;;;;;;;21.91;32.82;98650.78;5076041;28;1173;-78
2021/10/07 10:29:33;;;;;;;;;;;;;;;21.80;32.60;98651.75;5076180;28;872;-78
2021/10/07 10:31:59;;;;;;;;;;;;;;;21.75;32.64;98649.41;5076388;28;899;-79
2021/10/07 10:34:24;;;;;;;;;;;;;;;21.72;32.58;98650.28;5075960;28;972;-78
2021/10/07 10:36:53;;;;;;;;;;;;;;;21.64;32.51;98634.63;5076835;28;976;-78
2021/10/07 10:39:24;;;;;;;;;;;;;;;21.69;32.42;98639.03;5075592;28;1001;-78
2021/10/07 10:41:55;;;;;;;;;;;;;;;21.83;33.03;98639.59;5076217;28;1081;-78
2021/10/07 10:44:27;;;;;;;;;;;;;;;22.11;32.79;98643.16;5075197;28;1910;-78
2021/10/07 10:46:59;;;;;;;;;;;;;;;22.25;32.87;98631.56;5075569;28;1065;-78
2021/10/07 10:49:36;;;;;;;;;;;;;;;21.99;32.91;98635.25;5075135;28;971;-79
2021/10/07 10:52:20;;;;;;;;;;;;;;;21.84;32.92;98640.38;5075767;28;1096;-79
2021/10/07 10:54:49;;;;;;;;;;;;;;;21.72;33.13;98638.16;5075519;28;1019;-78
2021/10/07 10:57:27;;;;;;;;;;;;;;;21.71;32.96;98631.72;5075761;28;978;-78
2021/10/07 11:00:11;;;;;;;;;;;;;;;21.72;33.16;98638.97;5077483;28;892;-79
2021/10/07 11:02:37;;;;;;;;;;;;;;;21.62;33.00;98628.63;5077746;28;960;-78
2021/10/07 11:05:26;;;;;;;;;;;;;;;21.68;33.02;98626.91;5077865;28;1891;-78
2021/10/07 11:08:09;;;;;;;;;;;;;;;21.70;32.84;98632.91;5035278;28;988;-78
2021/10/07 11:10:44;;;;;;;;;;;;;;;21.70;32.93;98627.25;5035814;28;1069;-79
2021/10/07 11:13:36;;;;;;;;;;;;;;;21.78;32.59;98630.78;4995490;28;1049;-78
2021/10/07 11:16:13;;;;;;;;;;;;;;;21.67;32.81;98622.47;4977295;28;960;-79
2021/10/07 11:18:39;;;;;;;;;;;;;;;21.72;32.58;98638.97;4976194;28;964;-78
2021/10/07 11:21:06;;;;;;;;;;;;;;;21.57;33.15;98643.25;4938508;29;1061;-78
2021/10/07 11:23:32;;;;;;;;;;;;;;;21.68;32.60;98638.22;4918568;29;1918;-80
2021/10/07 11:25:58;;;;;;;;;;;;;;;21.57;32.75;98643.25;4919171;29;898;-78
2021/10/07 11:28:25;;;;;;;;;;;;;;;21.62;32.62;98639.94;4886927;29;983;-78
2021/10/07 11:30:50;;;;;;;;;;;;;;;21.79;33.28;98643.69;4918965;29;967;-78
2021/10/07 11:33:16;;;;;;;;;;;;;;;22.10;34.07;98652.88;4918668;29;993;-78
2021/10/07 11:35:41;;;;;;;;;;;;;;;22.25;33.87;98648.56;4919206;29;1094;-78
2021/10/07 11:38:07;;;;;;;;;;;;;;;22.18;33.92;98648.72;4918707;29;1008;-78
2021/10/07 11:40:34;;;;;;;;;;;;;;;21.93;33.92;98648.31;4862674;29;1023;-79
2021/10/07 11:43:04;;;;;;;;;;;;;;;21.87;33.82;98645.19;4843774;29;1003;-78
2021/10/07 11:45:30;;;;;;;;;;;;;;;21.81;33.29;98641.22;4886623;29;1974;-78
2021/10/07 11:47:56;;;;;;;;;;;;;;;21.72;33.33;98644.63;4899475;29;1009;-78
2021/10/07 11:50:22;;;;;;;;;;;;;;;21.74;33.55;98642.16;4899915;29;1010;-78
2021/10/07 11:52:48;;;;;;;;;;;;;;;21.75;33.36;98640.91;4914690;29;1025;-78
2021/10/07 11:55:13;;;;;;;;;;;;;;;21.75;33.48;98638.09;4948955;29;986;-78
2021/10/07 11:57:48;;;;;;;;;;;;;;;21.66;33.52;98634.19;4958235;28;998;-78
2021/10/07 12:00:14;;;;;;;;;;;;;;;21.66;33.54;98649.19;4995715;28;1021;-78
2021/10/07 12:02:40;;;;;;;;;;;;;;;21.74;33.49;98647.81;4999653;28;1096;-78
2021/10/07 12:05:15;;;;;;;;;;;;;;;21.84;33.25;98644.00;4998850;28;1898;-79
2021/10/07 12:07:40;;;;;;;;;;;;;;;21.71;33.36;98636.53;4999739;28;964;-78
2021/10/07 12:10:06;;;;;;;;;;;;;;;21.72;33.29;98638.97;4998852;28;946;-78
2021/10/07 12:12:31;;;;;;;;;;;;;;;21.75;33.16;98638.09;4999723;28;991;-78
2021/10/07 12:14:56;;;;;;;;;;;;;;;21.75;33.38;98638.09;5052330;28;1233;-79
2021/10/07 12:17:24;;;;;;;;;;;;;;;21.68;33.53;98635.38;5025448;28;990;-78
2021/10/07 12:19:49;;;;;;;;;;;;;;;21.62;33.41;98639.94;5058457;28;918;-78
2021/10/07 12:22:24;;;;;;;;;;;;;;;21.63;33.33;98646.41;5059133;28;924;-78
2021/10/07 12:24:56;;;;;;;;;;;;;;;21.69;33.49;98636.97;5058485;28;1914;-78
2021/10/07 12:27:30;;;;;;;;;;;;;;;21.70;33.01;98630.09;5080459;28;844;-78
2021/10/07 12:30:02;;;;;;;;;;;;;;;21.80;32.76;98640.44;5080370;28;972;-78
2021/10/07 12:32:27;;;;;;;;;;;;;;;21.54;33.22;98638.44;5080582;28;947;-79
2021/10/07 12:34:53;;;;;;;;;;;;;;;21.39;33.35;98631.41;5061366;28;1067;-78
2021/10/07 12:37:18;;;;;;;;;;;;;;;21.45;33.27;98636.19;5080654;28;986;-79
2021/10/07 12:39:44;;;;;;;;;;;;;;;21.63;32.79;98635.88;5078215;28;1352;-78
2021/10/07 12:42:13;;;;;;;;;;;;;;;21.98;33.33;98634.47;5080314;28;951;-77
2021/10/07 12:44:41;;;;;;;;;;;;;;;21.93;34.19;98631.31;5080407;28;1969;-78
2021/10/07 12:47:07;;;;;;;;;;;;;;;22.09;34.46;98645.59;5080374;28;1213;-78
2021/10/07 12:49:33;;;;;;;;;;;;;;;22.38;34.29;98639.41;5080372;28;1011;-78
2021/10/07 12:51:59;;;;;;;;;;;;;;;21.90;34.01;98644.31;5078365;28;972;-78
2021/10/07 12:54:27;;;;;;;;;;;;;;;21.76;33.94;98651.03;5077585;28;1063;-78
2021/10/07 12:56:52;;;;;;;;;;;;;;;21.52;33.75;98658.72;5078014;28;922;-78
2021/10/07 12:59:18;;;;;;;;;;;;;;;21.59;33.59;98657.78;5044380;28;995;-79
2021/10/07 13:01:45;;;;;;;;;;;;;;;21.69;33.01;98662.47;5077989;28;989;-78
2021/10/07 13:04:23;;;;;;;;;;;;;;;21.58;32.78;98667.50;5077786;28;1906;-78
2021/10/07 13:06:54;;;;;;;;;;;;;;;21.58;32.96;98667.50;5078203;28;1014;-79
2021/10/07 13:09:19;;;;;;;;;;;;;;;21.61;33.40;98666.66;5057319;28;969;-78
2021/10/07 13:11:45;;;;;;;;;;;;;;;21.82;34.07;98669.16;5041072;28;922;-78
2021/10/07 13:14:13;;;;;;;;;;;;;;;22.10;33.67;98661.38;5056904;28;1109;-79